sensor_id;sensor_type;location;lat;lon;timestamp;pressure;altitude;pressure_sealevel;temperature;humidity
60646;BME280;46462;32.608;-117.032;2023-01-27T00:01:53;100340.76;;;19.34;16.93
60646;BME280;46462;32.608;-117.032;2023-01-27T00:04:23;100345.93;;;19.34;17.03
60646;BME280;46462;32.608;-117.032;2023-01-27T00:06:53;100351.02;;;19.30;17.03
60646;BME280;46462;32.608;-117.032;2023-01-27T00:09:23;100348.77;;;19.25;17.11
60646;BME280;46462;32.608;-117.032;2023-01-27T00:11:54;100348.40;;;19.21;17.14
60646;BME280;46462;32.608;-117.032;2023-01-27T00:14:24;100340.11;;;19.10;17.22
60646;BME280;46462;32.608;-117.032;2023-01-27T00:16:54;100342.86;;;19.00;17.35
60646;BME280;46462;32.608;-117.032;2023-01-27T00:19:24;100342.49;;;18.98;17.49
60646;BME280;46462;32.608;-117.032;2023-01-27T00:21:54;100343.26;;;18.87;17.64
60646;BME280;46462;32.608;-117.032;2023-01-27T00:24:25;100347.05;;;18.96;17.58
60646;BME280;46462;32.608;-117.032;2023-01-27T00:26:55;100343.17;;;18.89;17.68
60646;BME280;46462;32.608;-117.032;2023-01-27T00:29:25;100348.29;;;18.83;17.77
60646;BME280;46462;32.608;-117.032;2023-01-27T00:31:55;100333.24;;;20.17;16.87
60646;BME280;46462;32.608;-117.032;2023-01-27T00:34:26;100331.69;;;21.82;15.38
60646;BME280;46462;32.608;-117.032;2023-01-27T00:36:56;100328.21;;;22.84;14.23
60646;BME280;46462;32.608;-117.032;2023-01-27T00:39:26;100329.45;;;23.48;13.77
60646;BME280;46462;32.608;-117.032;2023-01-27T00:41:56;100331.68;;;24.08;13.42
60646;BME280;46462;32.608;-117.032;2023-01-27T00:44:26;100340.11;;;24.30;13.24
60646;BME280;46462;32.608;-117.032;2023-01-27T00:46:57;100338.16;;;24.46;13.49
60646;BME280;46462;32.608;-117.032;2023-01-27T00:49:27;100337.21;;;24.49;13.32
60646;BME280;46462;32.608;-117.032;2023-01-27T00:51:57;100336.42;;;24.65;13.20
60646;BME280;46462;32.608;-117.032;2023-01-27T00:54:27;100335.33;;;24.70;13.45
60646;BME280;46462;32.608;-117.032;2023-01-27T00:56:57;100337.76;;;24.84;13.15
60646;BME280;46462;32.608;-117.032;2023-01-27T00:59:28;100349.15;;;24.88;13.19
60646;BME280;46462;32.608;-117.032;2023-01-27T01:01:58;100348.37;;;24.81;13.37
60646;BME280;46462;32.608;-117.032;2023-01-27T01:04:28;100347.24;;;24.84;13.44
60646;BME280;46462;32.608;-117.032;2023-01-27T01:06:58;100349.85;;;24.91;13.33
60646;BME280;46462;32.608;-117.032;2023-01-27T01:09:29;100353.19;;;24.91;13.48
60646;BME280;46462;32.608;-117.032;2023-01-27T01:11:59;100357.16;;;24.91;13.70
60646;BME280;46462;32.608;-117.032;2023-01-27T01:14:29;100355.76;;;24.90;13.75
60646;BME280;46462;32.608;-117.032;2023-01-27T01:16:59;100355.93;;;24.96;13.73
60646;BME280;46462;32.608;-117.032;2023-01-27T01:19:30;100355.62;;;24.86;13.93
60646;BME280;46462;32.608;-117.032;2023-01-27T01:22:00;100359.88;;;24.87;13.95
60646;BME280;46462;32.608;-117.032;2023-01-27T01:24:30;100366.53;;;24.92;14.01
60646;BME280;46462;32.608;-117.032;2023-01-27T01:27:00;100366.52;;;24.91;14.14
60646;BME280;46462;32.608;-117.032;2023-01-27T01:29:30;100367.33;;;24.92;14.20
60646;BME280;46462;32.608;-117.032;2023-01-27T01:32:00;100369.66;;;24.85;14.60
60646;BME280;46462;32.608;-117.032;2023-01-27T01:34:31;100370.58;;;24.83;14.56
60646;BME280;46462;32.608;-117.032;2023-01-27T01:37:01;100368.92;;;24.85;14.60
60646;BME280;46462;32.608;-117.032;2023-01-27T01:39:31;100372.14;;;24.79;14.80
60646;BME280;46462;32.608;-117.032;2023-01-27T01:42:01;100377.97;;;24.82;14.83
60646;BME280;46462;32.608;-117.032;2023-01-27T01:44:32;100377.08;;;24.79;14.90
60646;BME280;46462;32.608;-117.032;2023-01-27T01:47:02;100375.55;;;24.79;15.06
60646;BME280;46462;32.608;-117.032;2023-01-27T01:49:35;100378.32;;;24.79;15.18
60646;BME280;46462;32.608;-117.032;2023-01-27T01:52:06;100374.97;;;24.84;15.26
60646;BME280;46462;32.608;-117.032;2023-01-27T01:54:34;100383.23;;;24.85;15.55
60646;BME280;46462;32.608;-117.032;2023-01-27T01:57:06;100378.41;;;24.91;15.87
60646;BME280;46462;32.608;-117.032;2023-01-27T01:59:35;100379.86;;;24.93;15.64
60646;BME280;46462;32.608;-117.032;2023-01-27T02:02:07;100381.71;;;24.93;15.83
60646;BME280;46462;32.608;-117.032;2023-01-27T02:04:37;100382.83;;;24.95;15.81
60646;BME280;46462;32.608;-117.032;2023-01-27T02:07:08;100385.17;;;24.95;16.06
60646;BME280;46462;32.608;-117.032;2023-01-27T02:09:34;100379.70;;;24.93;16.05
60646;BME280;46462;32.608;-117.032;2023-01-27T02:12:04;100385.99;;;24.91;16.02
60646;BME280;46462;32.608;-117.032;2023-01-27T02:14:34;100389.31;;;24.90;16.26
60646;BME280;46462;32.608;-117.032;2023-01-27T02:17:05;100388.16;;;24.92;16.35
60646;BME280;46462;32.608;-117.032;2023-01-27T02:19:43;100388.29;;;24.91;16.41
60646;BME280;46462;32.608;-117.032;2023-01-27T02:22:06;100392.00;;;24.93;16.36
60646;BME280;46462;32.608;-117.032;2023-01-27T02:24:39;100392.47;;;24.96;16.36
60646;BME280;46462;32.608;-117.032;2023-01-27T02:27:05;100397.14;;;24.93;16.35
60646;BME280;46462;32.608;-117.032;2023-01-27T02:29:35;100390.39;;;24.93;16.46
60646;BME280;46462;32.608;-117.032;2023-01-27T02:32:06;100386.29;;;24.94;16.57
60646;BME280;46462;32.608;-117.032;2023-01-27T02:34:37;100384.34;;;24.98;16.59
60646;BME280;46462;32.608;-117.032;2023-01-27T02:37:07;100383.17;;;24.95;16.74
60646;BME280;46462;32.608;-117.032;2023-01-27T02:39:38;100390.96;;;24.94;16.88
60646;BME280;46462;32.608;-117.032;2023-01-27T02:42:08;100387.06;;;24.93;16.92
60646;BME280;46462;32.608;-117.032;2023-01-27T02:44:37;100393.24;;;24.90;16.98
60646;BME280;46462;32.608;-117.032;2023-01-27T02:47:07;100402.35;;;24.84;17.10
60646;BME280;46462;32.608;-117.032;2023-01-27T02:49:37;100403.22;;;24.74;17.31
60646;BME280;46462;32.608;-117.032;2023-01-27T02:52:07;100398.26;;;24.71;17.31
60646;BME280;46462;32.608;-117.032;2023-01-27T02:54:37;100400.77;;;24.58;17.46
60646;BME280;46462;32.608;-117.032;2023-01-27T02:57:08;100413.16;;;24.52;17.53
60646;BME280;46462;32.608;-117.032;2023-01-27T02:59:38;100410.99;;;24.41;17.71
60646;BME280;46462;32.608;-117.032;2023-01-27T03:02:08;100416.66;;;24.38;17.76
60646;BME280;46462;32.608;-117.032;2023-01-27T03:04:38;100409.16;;;24.30;17.91
60646;BME280;46462;32.608;-117.032;2023-01-27T03:07:08;100414.15;;;24.35;17.85
60646;BME280;46462;32.608;-117.032;2023-01-27T03:09:39;100415.21;;;24.34;17.91
60646;BME280;46462;32.608;-117.032;2023-01-27T03:12:09;100414.53;;;24.33;17.94
60646;BME280;46462;32.608;-117.032;2023-01-27T03:14:39;100418.43;;;24.36;17.95
60646;BME280;46462;32.608;-117.032;2023-01-27T03:17:09;100409.02;;;24.36;17.96
60646;BME280;46462;32.608;-117.032;2023-01-27T03:19:40;100409.93;;;24.36;18.04
60646;BME280;46462;32.608;-117.032;2023-01-27T03:22:10;100403.27;;;24.45;18.03
60646;BME280;46462;32.608;-117.032;2023-01-27T03:24:40;100405.58;;;24.56;18.01
60646;BME280;46462;32.608;-117.032;2023-01-27T03:27:10;100404.83;;;24.52;18.19
60646;BME280;46462;32.608;-117.032;2023-01-27T03:29:40;100407.48;;;24.43;18.41
60646;BME280;46462;32.608;-117.032;2023-01-27T03:32:11;100401.93;;;24.46;18.43
60646;BME280;46462;32.608;-117.032;2023-01-27T03:34:41;100403.04;;;24.42;18.52
60646;BME280;46462;32.608;-117.032;2023-01-27T03:37:11;100414.71;;;24.31;18.57
60646;BME280;46462;32.608;-117.032;2023-01-27T03:39:41;100418.14;;;24.30;18.57
60646;BME280;46462;32.608;-117.032;2023-01-27T03:42:11;100421.90;;;24.30;18.64
60646;BME280;46462;32.608;-117.032;2023-01-27T03:44:42;100423.52;;;24.26;18.73
60646;BME280;46462;32.608;-117.032;2023-01-27T03:47:12;100429.10;;;24.26;18.74
60646;BME280;46462;32.608;-117.032;2023-01-27T03:49:42;100418.59;;;24.22;18.98
60646;BME280;46462;32.608;-117.032;2023-01-27T03:52:12;100420.41;;;24.27;18.93
60646;BME280;46462;32.608;-117.032;2023-01-27T03:54:43;100415.07;;;24.27;18.97
60646;BME280;46462;32.608;-117.032;2023-01-27T03:57:13;100412.49;;;24.26;19.04
60646;BME280;46462;32.608;-117.032;2023-01-27T03:59:43;100402.66;;;24.23;19.14
60646;BME280;46462;32.608;-117.032;2023-01-27T04:02:13;100401.93;;;24.16;19.25
60646;BME280;46462;32.608;-117.032;2023-01-27T04:04:44;100409.85;;;24.14;19.35
60646;BME280;46462;32.608;-117.032;2023-01-27T04:07:14;100411.70;;;24.03;19.50
60646;BME280;46462;32.608;-117.032;2023-01-27T04:09:44;100410.66;;;24.10;19.43
60646;BME280;46462;32.608;-117.032;2023-01-27T04:12:14;100403.95;;;24.16;19.39
60646;BME280;46462;32.608;-117.032;2023-01-27T04:14:44;100396.81;;;23.91;19.77
60646;BME280;46462;32.608;-117.032;2023-01-27T04:17:16;100396.95;;;24.00;19.69
60646;BME280;46462;32.608;-117.032;2023-01-27T04:19:45;100395.71;;;24.07;19.62
60646;BME280;46462;32.608;-117.032;2023-01-27T04:22:15;100394.13;;;24.07;19.70
60646;BME280;46462;32.608;-117.032;2023-01-27T04:24:45;100389.04;;;24.01;19.76
60646;BME280;46462;32.608;-117.032;2023-01-27T04:27:15;100385.17;;;24.03;19.81
60646;BME280;46462;32.608;-117.032;2023-01-27T04:29:46;100387.74;;;24.00;19.89
60646;BME280;46462;32.608;-117.032;2023-01-27T04:32:16;100391.72;;;24.10;19.83
60646;BME280;46462;32.608;-117.032;2023-01-27T04:34:46;100398.22;;;23.98;20.00
60646;BME280;46462;32.608;-117.032;2023-01-27T04:37:16;100396.92;;;24.05;20.00
60646;BME280;46462;32.608;-117.032;2023-01-27T04:39:47;100394.46;;;24.07;19.98
60646;BME280;46462;32.608;-117.032;2023-01-27T04:42:17;100387.61;;;24.00;20.19
60646;BME280;46462;32.608;-117.032;2023-01-27T04:44:47;100392.75;;;24.04;20.17
60646;BME280;46462;32.608;-117.032;2023-01-27T04:47:17;100392.39;;;23.92;20.28
60646;BME280;46462;32.608;-117.032;2023-01-27T04:49:48;100386.77;;;23.95;20.23
60646;BME280;46462;32.608;-117.032;2023-01-27T04:52:18;100384.13;;;23.97;20.19
60646;BME280;46462;32.608;-117.032;2023-01-27T04:54:48;100380.06;;;23.89;20.34
60646;BME280;46462;32.608;-117.032;2023-01-27T04:57:18;100383.30;;;23.94;20.28
60646;BME280;46462;32.608;-117.032;2023-01-27T04:59:48;100380.93;;;23.84;20.43
60646;BME280;46462;32.608;-117.032;2023-01-27T05:02:19;100381.98;;;23.94;20.42
60646;BME280;46462;32.608;-117.032;2023-01-27T05:04:49;100384.46;;;23.80;20.75
60646;BME280;46462;32.608;-117.032;2023-01-27T05:07:19;100385.12;;;23.81;20.62
60646;BME280;46462;32.608;-117.032;2023-01-27T05:09:49;100385.90;;;23.73;20.70
60646;BME280;46462;32.608;-117.032;2023-01-27T05:12:19;100393.44;;;23.74;20.70
60646;BME280;46462;32.608;-117.032;2023-01-27T05:14:50;100397.57;;;23.62;20.93
60646;BME280;46462;32.608;-117.032;2023-01-27T05:17:20;100400.94;;;23.67;20.85
60646;BME280;46462;32.608;-117.032;2023-01-27T05:19:50;100403.78;;;23.66;21.02
60646;BME280;46462;32.608;-117.032;2023-01-27T05:22:20;100405.95;;;23.64;21.04
60646;BME280;46462;32.608;-117.032;2023-01-27T05:24:51;100404.90;;;23.50;21.35
60646;BME280;46462;32.608;-117.032;2023-01-27T05:27:21;100404.07;;;23.56;21.23
60646;BME280;46462;32.608;-117.032;2023-01-27T05:29:51;100400.23;;;23.54;21.29
60646;BME280;46462;32.608;-117.032;2023-01-27T05:32:21;100402.37;;;23.63;21.20
60646;BME280;46462;32.608;-117.032;2023-01-27T05:34:52;100407.98;;;23.60;21.35
60646;BME280;46462;32.608;-117.032;2023-01-27T05:37:22;100412.32;;;23.40;21.48
60646;BME280;46462;32.608;-117.032;2023-01-27T05:39:52;100412.32;;;23.43;21.43
60646;BME280;46462;32.608;-117.032;2023-01-27T05:42:22;100415.52;;;23.54;21.53
60646;BME280;46462;32.608;-117.032;2023-01-27T05:44:52;100418.08;;;23.42;21.54
60646;BME280;46462;32.608;-117.032;2023-01-27T05:47:23;100419.93;;;23.39;21.65
60646;BME280;46462;32.608;-117.032;2023-01-27T05:49:53;100414.80;;;23.40;21.50
60646;BME280;46462;32.608;-117.032;2023-01-27T05:52:23;100418.57;;;23.27;21.88
60646;BME280;46462;32.608;-117.032;2023-01-27T05:54:53;100417.91;;;23.23;22.16
60646;BME280;46462;32.608;-117.032;2023-01-27T05:57:24;100419.24;;;23.40;21.68
60646;BME280;46462;32.608;-117.032;2023-01-27T05:59:54;100418.43;;;23.39;21.69
60646;BME280;46462;32.608;-117.032;2023-01-27T06:02:24;100419.26;;;23.17;22.09
60646;BME280;46462;32.608;-117.032;2023-01-27T06:04:54;100421.02;;;23.20;22.17
60646;BME280;46462;32.608;-117.032;2023-01-27T06:07:25;100421.93;;;23.31;21.90
60646;BME280;46462;32.608;-117.032;2023-01-27T06:09:55;100421.29;;;23.15;22.12
60646;BME280;46462;32.608;-117.032;2023-01-27T06:12:25;100419.87;;;23.26;22.06
60646;BME280;46462;32.608;-117.032;2023-01-27T06:14:55;100417.20;;;22.91;22.50
60646;BME280;46462;32.608;-117.032;2023-01-27T06:17:25;100419.43;;;23.16;22.28
60646;BME280;46462;32.608;-117.032;2023-01-27T06:19:56;100426.28;;;22.86;22.79
60646;BME280;46462;32.608;-117.032;2023-01-27T06:22:26;100431.48;;;22.71;22.86
60646;BME280;46462;32.608;-117.032;2023-01-27T06:24:56;100433.94;;;22.66;22.90
60646;BME280;46462;32.608;-117.032;2023-01-27T06:27:26;100429.70;;;22.67;23.01
60646;BME280;46462;32.608;-117.032;2023-01-27T06:29:57;100421.89;;;22.48;23.18
60646;BME280;46462;32.608;-117.032;2023-01-27T06:32:27;100426.43;;;22.50;23.21
60646;BME280;46462;32.608;-117.032;2023-01-27T06:34:57;100425.52;;;22.60;23.20
60646;BME280;46462;32.608;-117.032;2023-01-27T06:37:28;100423.52;;;22.66;23.26
60646;BME280;46462;32.608;-117.032;2023-01-27T06:39:58;100425.59;;;22.42;23.50
60646;BME280;46462;32.608;-117.032;2023-01-27T06:42:28;100427.74;;;22.48;23.29
60646;BME280;46462;32.608;-117.032;2023-01-27T06:44:58;100430.66;;;22.36;23.64
60646;BME280;46462;32.608;-117.032;2023-01-27T06:47:28;100431.68;;;22.34;23.47
60646;BME280;46462;32.608;-117.032;2023-01-27T06:49:59;100427.98;;;22.29;23.64
60646;BME280;46462;32.608;-117.032;2023-01-27T06:52:29;100427.15;;;22.15;23.93
60646;BME280;46462;32.608;-117.032;2023-01-27T06:54:59;100419.31;;;22.23;23.77
60646;BME280;46462;32.608;-117.032;2023-01-27T06:57:29;100426.12;;;22.34;23.76
60646;BME280;46462;32.608;-117.032;2023-01-27T06:59:59;100423.29;;;22.35;23.55
60646;BME280;46462;32.608;-117.032;2023-01-27T07:02:30;100424.12;;;22.23;23.76
60646;BME280;46462;32.608;-117.032;2023-01-27T07:05:00;100428.73;;;22.20;23.87
60646;BME280;46462;32.608;-117.032;2023-01-27T07:07:30;100420.07;;;22.16;24.10
60646;BME280;46462;32.608;-117.032;2023-01-27T07:10:00;100425.31;;;22.10;24.14
60646;BME280;46462;32.608;-117.032;2023-01-27T07:12:31;100431.10;;;22.00;24.14
60646;BME280;46462;32.608;-117.032;2023-01-27T07:15:01;100419.20;;;22.13;23.94
60646;BME280;46462;32.608;-117.032;2023-01-27T07:17:31;100424.06;;;22.33;23.77
60646;BME280;46462;32.608;-117.032;2023-01-27T07:20:02;100420.18;;;22.21;23.88
60646;BME280;46462;32.608;-117.032;2023-01-27T07:22:32;100416.18;;;22.07;24.20
60646;BME280;46462;32.608;-117.032;2023-01-27T07:25:04;100411.54;;;22.09;24.05
60646;BME280;46462;32.608;-117.032;2023-01-27T07:27:32;100413.82;;;22.10;23.97
60646;BME280;46462;32.608;-117.032;2023-01-27T07:30:08;100412.64;;;22.11;24.10
60646;BME280;46462;32.608;-117.032;2023-01-27T07:32:37;100410.74;;;22.11;23.88
60646;BME280;46462;32.608;-117.032;2023-01-27T07:35:07;100404.34;;;22.05;23.98
60646;BME280;46462;32.608;-117.032;2023-01-27T07:37:37;100409.29;;;21.98;24.32
60646;BME280;46462;32.608;-117.032;2023-01-27T07:40:10;100412.13;;;22.07;24.17
60646;BME280;46462;32.608;-117.032;2023-01-27T07:42:38;100415.78;;;21.85;24.58
60646;BME280;46462;32.608;-117.032;2023-01-27T07:45:09;100417.55;;;21.97;24.34
60646;BME280;46462;32.608;-117.032;2023-01-27T07:47:38;100415.16;;;21.91;24.33
60646;BME280;46462;32.608;-117.032;2023-01-27T07:50:10;100416.78;;;21.77;24.31
60646;BME280;46462;32.608;-117.032;2023-01-27T07:52:39;100414.05;;;21.76;24.55
60646;BME280;46462;32.608;-117.032;2023-01-27T07:55:09;100414.67;;;21.63;24.63
60646;BME280;46462;32.608;-117.032;2023-01-27T07:57:39;100421.69;;;21.67;24.73
60646;BME280;46462;32.608;-117.032;2023-01-27T08:00:11;100423.37;;;21.83;24.46
60646;BME280;46462;32.608;-117.032;2023-01-27T08:02:40;100420.56;;;21.72;24.73
60646;BME280;46462;32.608;-117.032;2023-01-27T08:05:10;100409.79;;;21.66;24.52
60646;BME280;46462;32.608;-117.032;2023-01-27T08:07:40;100404.24;;;21.79;24.52
60646;BME280;46462;32.608;-117.032;2023-01-27T08:10:11;100400.10;;;21.63;24.82
60646;BME280;46462;32.608;-117.032;2023-01-27T08:12:43;100398.51;;;21.62;24.59
60646;BME280;46462;32.608;-117.032;2023-01-27T08:15:11;100396.65;;;21.63;24.51
60646;BME280;46462;32.608;-117.032;2023-01-27T08:17:41;100400.11;;;21.57;24.80
60646;BME280;46462;32.608;-117.032;2023-01-27T08:20:12;100398.54;;;21.52;24.75
60646;BME280;46462;32.608;-117.032;2023-01-27T08:22:42;100399.20;;;21.58;24.73
60646;BME280;46462;32.608;-117.032;2023-01-27T08:25:12;100398.61;;;21.39;24.93
60646;BME280;46462;32.608;-117.032;2023-01-27T08:27:42;100399.60;;;21.32;25.47
60646;BME280;46462;32.608;-117.032;2023-01-27T08:30:13;100398.30;;;21.38;24.85
60646;BME280;46462;32.608;-117.032;2023-01-27T08:32:43;100395.81;;;21.37;25.39
60646;BME280;46462;32.608;-117.032;2023-01-27T08:35:13;100391.60;;;21.30;25.09
60646;BME280;46462;32.608;-117.032;2023-01-27T08:37:44;100384.09;;;21.37;25.09
60646;BME280;46462;32.608;-117.032;2023-01-27T08:40:14;100379.93;;;21.30;25.29
60646;BME280;46462;32.608;-117.032;2023-01-27T08:42:44;100380.92;;;21.27;25.23
60646;BME280;46462;32.608;-117.032;2023-01-27T08:45:14;100376.04;;;21.30;25.17
60646;BME280;46462;32.608;-117.032;2023-01-27T08:47:44;100375.91;;;21.36;24.75
60646;BME280;46462;32.608;-117.032;2023-01-27T08:50:15;100369.84;;;21.24;25.07
60646;BME280;46462;32.608;-117.032;2023-01-27T08:52:45;100367.49;;;21.36;24.66
60646;BME280;46462;32.608;-117.032;2023-01-27T08:55:15;100374.21;;;21.48;24.86
60646;BME280;46462;32.608;-117.032;2023-01-27T08:57:45;100374.99;;;21.44;24.87
60646;BME280;46462;32.608;-117.032;2023-01-27T09:00:16;100374.58;;;21.20;25.31
60646;BME280;46462;32.608;-117.032;2023-01-27T09:02:46;100377.54;;;21.06;25.09
60646;BME280;46462;32.608;-117.032;2023-01-27T09:05:17;100377.38;;;21.13;25.55
60646;BME280;46462;32.608;-117.032;2023-01-27T09:07:47;100376.18;;;21.06;25.72
60646;BME280;46462;32.608;-117.032;2023-01-27T09:10:17;100374.18;;;21.09;25.65
60646;BME280;46462;32.608;-117.032;2023-01-27T09:12:47;100367.87;;;20.97;25.56
60646;BME280;46462;32.608;-117.032;2023-01-27T09:15:17;100371.19;;;20.92;25.60
60646;BME280;46462;32.608;-117.032;2023-01-27T09:17:47;100368.76;;;21.10;25.44
60646;BME280;46462;32.608;-117.032;2023-01-27T09:20:18;100369.08;;;20.77;25.99
60646;BME280;46462;32.608;-117.032;2023-01-27T09:22:48;100367.57;;;20.81;25.94
60646;BME280;46462;32.608;-117.032;2023-01-27T09:25:18;100362.26;;;20.79;25.75
60646;BME280;46462;32.608;-117.032;2023-01-27T09:27:50;100357.32;;;20.88;25.64
60646;BME280;46462;32.608;-117.032;2023-01-27T09:30:19;100355.62;;;20.79;25.75
60646;BME280;46462;32.608;-117.032;2023-01-27T09:32:49;100359.79;;;20.92;25.46
60646;BME280;46462;32.608;-117.032;2023-01-27T09:35:19;100357.25;;;20.76;25.67
60646;BME280;46462;32.608;-117.032;2023-01-27T09:37:53;100354.13;;;20.80;25.56
60646;BME280;46462;32.608;-117.032;2023-01-27T09:40:30;100348.64;;;20.76;25.93
60646;BME280;46462;32.608;-117.032;2023-01-27T09:43:02;100344.30;;;20.79;25.52
60646;BME280;46462;32.608;-117.032;2023-01-27T09:45:33;100338.51;;;20.79;25.76
60646;BME280;46462;32.608;-117.032;2023-01-27T09:48:04;100335.46;;;20.73;25.63
60646;BME280;46462;32.608;-117.032;2023-01-27T09:50:30;100337.27;;;20.70;25.60
60646;BME280;46462;32.608;-117.032;2023-01-27T09:53:02;100334.25;;;20.74;25.65
60646;BME280;46462;32.608;-117.032;2023-01-27T09:55:26;100331.10;;;20.64;25.86
60646;BME280;46462;32.608;-117.032;2023-01-27T09:57:56;100328.49;;;20.68;25.78
60646;BME280;46462;32.608;-117.032;2023-01-27T10:00:32;100326.49;;;20.72;25.75
60646;BME280;46462;32.608;-117.032;2023-01-27T10:03:05;100324.16;;;20.69;25.69
60646;BME280;46462;32.608;-117.032;2023-01-27T10:05:36;100318.87;;;20.76;25.41
60646;BME280;46462;32.608;-117.032;2023-01-27T10:10:36;100316.53;;;20.67;25.51
60646;BME280;46462;32.608;-117.032;2023-01-27T10:13:05;100314.82;;;20.52;26.08
60646;BME280;46462;32.608;-117.032;2023-01-27T10:15:34;100318.62;;;20.62;25.71
60646;BME280;46462;32.608;-117.032;2023-01-27T10:18:02;100316.68;;;20.59;26.00
60646;BME280;46462;32.608;-117.032;2023-01-27T10:20:29;100310.75;;;20.47;26.12
60646;BME280;46462;32.608;-117.032;2023-01-27T10:23:05;100304.22;;;20.52;26.13
60646;BME280;46462;32.608;-117.032;2023-01-27T10:25:32;100301.17;;;20.66;25.94
60646;BME280;46462;32.608;-117.032;2023-01-27T10:27:57;100299.24;;;20.43;25.99
60646;BME280;46462;32.608;-117.032;2023-01-27T10:30:31;100298.01;;;20.38;25.94
60646;BME280;46462;32.608;-117.032;2023-01-27T10:33:03;100295.89;;;20.34;26.04
60646;BME280;46462;32.608;-117.032;2023-01-27T10:35:31;100293.43;;;20.37;26.16
60646;BME280;46462;32.608;-117.032;2023-01-27T10:38:04;100286.84;;;20.33;26.16
60646;BME280;46462;32.608;-117.032;2023-01-27T10:40:34;100283.22;;;20.41;25.92
60646;BME280;46462;32.608;-117.032;2023-01-27T10:43:00;100280.90;;;20.34;26.12
60646;BME280;46462;32.608;-117.032;2023-01-27T10:45:32;100275.57;;;20.29;26.21
60646;BME280;46462;32.608;-117.032;2023-01-27T10:48:11;100272.88;;;20.27;26.15
60646;BME280;46462;32.608;-117.032;2023-01-27T10:50:30;100273.86;;;20.28;26.44
60646;BME280;46462;32.608;-117.032;2023-01-27T10:53:03;100274.41;;;20.26;26.12
60646;BME280;46462;32.608;-117.032;2023-01-27T10:55:36;100271.69;;;20.27;26.02
60646;BME280;46462;32.608;-117.032;2023-01-27T10:58:00;100274.53;;;20.39;25.77
60646;BME280;46462;32.608;-117.032;2023-01-27T11:00:32;100274.41;;;20.12;26.17
60646;BME280;46462;32.608;-117.032;2023-01-27T11:03:04;100269.52;;;20.05;26.13
60646;BME280;46462;32.608;-117.032;2023-01-27T11:05:34;100272.97;;;20.31;25.67
60646;BME280;46462;32.608;-117.032;2023-01-27T11:08:03;100268.25;;;20.10;26.66
60646;BME280;46462;32.608;-117.032;2023-01-27T11:10:35;100265.47;;;20.08;26.14
60646;BME280;46462;32.608;-117.032;2023-01-27T11:13:01;100263.72;;;19.90;26.48
60646;BME280;46462;32.608;-117.032;2023-01-27T11:15:32;100262.75;;;19.85;26.87
60646;BME280;46462;32.608;-117.032;2023-01-27T11:18:04;100261.61;;;20.24;26.15
60646;BME280;46462;32.608;-117.032;2023-01-27T11:20:33;100253.94;;;20.10;26.18
60646;BME280;46462;32.608;-117.032;2023-01-27T11:23:12;100256.83;;;19.85;26.36
60646;BME280;46462;32.608;-117.032;2023-01-27T11:25:42;100258.41;;;20.02;26.32
60646;BME280;46462;32.608;-117.032;2023-01-27T11:28:13;100253.21;;;19.90;26.30
60646;BME280;46462;32.608;-117.032;2023-01-27T11:30:37;100253.99;;;19.88;26.74
60646;BME280;46462;32.608;-117.032;2023-01-27T11:33:10;100248.11;;;19.91;26.18
60646;BME280;46462;32.608;-117.032;2023-01-27T11:35:32;100245.78;;;19.75;26.55
60646;BME280;46462;32.608;-117.032;2023-01-27T11:38:02;100244.67;;;19.69;26.40
60646;BME280;46462;32.608;-117.032;2023-01-27T11:40:35;100249.97;;;19.71;26.62
60646;BME280;46462;32.608;-117.032;2023-01-27T11:43:03;100247.49;;;19.69;26.79
60646;BME280;46462;32.608;-117.032;2023-01-27T11:45:34;100246.35;;;19.67;26.95
60646;BME280;46462;32.608;-117.032;2023-01-27T11:48:07;100250.15;;;19.74;26.49
60646;BME280;46462;32.608;-117.032;2023-01-27T11:50:35;100245.63;;;19.81;26.16
60646;BME280;46462;32.608;-117.032;2023-01-27T11:53:11;100243.92;;;19.80;26.81
60646;BME280;46462;32.608;-117.032;2023-01-27T11:55:38;100239.15;;;19.67;26.66
60646;BME280;46462;32.608;-117.032;2023-01-27T11:58:13;100234.04;;;19.67;26.51
60646;BME280;46462;32.608;-117.032;2023-01-27T12:00:41;100225.95;;;19.61;26.66
60646;BME280;46462;32.608;-117.032;2023-01-27T12:03:12;100222.93;;;19.63;26.39
60646;BME280;46462;32.608;-117.032;2023-01-27T12:05:40;100219.20;;;19.82;26.32
60646;BME280;46462;32.608;-117.032;2023-01-27T12:08:06;100215.79;;;19.64;27.01
60646;BME280;46462;32.608;-117.032;2023-01-27T12:10:38;100212.20;;;19.74;26.55
60646;BME280;46462;32.608;-117.032;2023-01-27T12:13:09;100211.89;;;19.59;26.74
60646;BME280;46462;32.608;-117.032;2023-01-27T12:15:37;100210.18;;;19.52;26.85
60646;BME280;46462;32.608;-117.032;2023-01-27T12:18:12;100203.73;;;19.78;26.47
60646;BME280;46462;32.608;-117.032;2023-01-27T12:20:39;100201.85;;;19.63;26.88
60646;BME280;46462;32.608;-117.032;2023-01-27T12:23:14;100203.22;;;19.55;26.70
60646;BME280;46462;32.608;-117.032;2023-01-27T12:25:43;100197.96;;;19.60;26.69
60646;BME280;46462;32.608;-117.032;2023-01-27T12:28:19;100200.27;;;19.60;26.82
60646;BME280;46462;32.608;-117.032;2023-01-27T12:30:39;100198.32;;;19.61;26.67
60646;BME280;46462;32.608;-117.032;2023-01-27T12:33:12;100196.81;;;19.56;26.93
60646;BME280;46462;32.608;-117.032;2023-01-27T12:35:39;100193.37;;;19.69;26.69
60646;BME280;46462;32.608;-117.032;2023-01-27T12:38:15;100191.54;;;19.72;26.45